Pagina principală
METAR-TAF:

METAR-TAF

Aeroporturi :

Pohnpei, Micronezia

Latitudine: 06-59N, longitudine: 158-12E, elevație: 2 m

Observații meteo curente

Raportul a fost făcut în urmă cu 24 ore și 19 de minute, la 14:50 UTC
Vânt 3 kt de la Est/Sud-est
Temperatură 28°C
Umiditate 84%
Presiune 1010 hPa
Vizibilitate: 24.1 km
Nori împrăștiați la o înălțime de 1800 picior
Nori fragmentați la o înălțime de 13000 picior
Total acoperit la o înălțime de 30000 picior

METAR: PTPN 241450Z 12003KT 15SM SCT018 BKN130 OVC300 28/25 A2982 RMK LAST

Ora: 02:09 (15:09 UTC)

Prognoză

Raportul a fost făcut în urmă cu 25 ore și 48 de minute, la 13:21 UTC
Prognoză valabilă de la 24 ora 13 UTC la 25 ora 12 UTC
Vânt 10 kt de la Est
Vizibilitate: 10 km
Nori împrăștiați la o înălțime de 1800 picior
Nori fragmentați la o înălțime de 12000 picior
averse în apropiere

TAF: PTPN 241321Z 2413/2512 10010KT P6SM VCSH SCT018 BKN120

Observații și prognoze meteo pentru peste 4.000 de aeroporturi (rapoarte METAR și TAF).

Stațiile disponibile sunt reprezentate pe hartă prin puncte galbene și roșii.

Țineți indicatorul mouse-ului pe punctul dorit pentru a vedea denumirea stației.

Apoi, faceți clic pentru a vedea observațiile și prognozele meteorologice.

Pentru a schimba harta: Pentru mărire, faceți clic pe butoanele verzi cu cruce neagră; pentru micșorare, pe butonul verde cu o liniuță; pentru hărți învecinate, pe săgețile verzi.


METAR-TAF: